sensor_id;sensor_type;location;lat;lon;timestamp;P1;durP1;ratioP1;P2;durP2;ratioP2
70715;SDS011;59053;50.832;12.882;2023-05-07T00:04:14;18.45;;;7.32;;
70715;SDS011;59053;50.832;12.882;2023-05-07T00:06:42;15.73;;;6.28;;
70715;SDS011;59053;50.832;12.882;2023-05-07T00:12:23;20.60;;;6.32;;
70715;SDS011;59053;50.832;12.882;2023-05-07T00:14:48;12.00;;;5.33;;
70715;SDS011;59053;50.832;12.882;2023-05-07T00:17:14;15.77;;;6.73;;
70715;SDS011;59053;50.832;12.882;2023-05-07T00:19:39;14.40;;;6.00;;
70715;SDS011;59053;50.832;12.882;2023-05-07T00:22:21;12.23;;;5.03;;
70715;SDS011;59053;50.832;12.882;2023-05-07T00:24:59;14.48;;;5.63;;
70715;SDS011;59053;50.832;12.882;2023-05-07T00:27:25;15.00;;;6.20;;
70715;SDS011;59053;50.832;12.882;2023-05-07T00:29:50;10.83;;;4.67;;
70715;SDS011;59053;50.832;12.882;2023-05-07T00:32:16;13.20;;;5.20;;
70715;SDS011;59053;50.832;12.882;2023-05-07T00:34:41;13.13;;;5.43;;
70715;SDS011;59053;50.832;12.882;2023-05-07T00:37:06;11.05;;;4.32;;
70715;SDS011;59053;50.832;12.882;2023-05-07T00:39:35;8.23;;;3.63;;
70715;SDS011;59053;50.832;12.882;2023-05-07T00:42:00;12.00;;;4.90;;
70715;SDS011;59053;50.832;12.882;2023-05-07T00:44:26;12.47;;;5.30;;
70715;SDS011;59053;50.832;12.882;2023-05-07T00:46:52;10.70;;;4.28;;
70715;SDS011;59053;50.832;12.882;2023-05-07T00:49:18;14.02;;;5.70;;
70715;SDS011;59053;50.832;12.882;2023-05-07T00:51:43;12.87;;;5.40;;
70715;SDS011;59053;50.832;12.882;2023-05-07T00:54:09;12.23;;;4.80;;
70715;SDS011;59053;50.832;12.882;2023-05-07T00:56:43;11.52;;;4.25;;
70715;SDS011;59053;50.832;12.882;2023-05-07T00:59:11;13.57;;;5.43;;
70715;SDS011;59053;50.832;12.882;2023-05-07T01:01:36;10.73;;;4.15;;
70715;SDS011;59053;50.832;12.882;2023-05-07T01:04:01;13.30;;;5.33;;
70715;SDS011;59053;50.832;12.882;2023-05-07T01:06:28;13.17;;;5.77;;
70715;SDS011;59053;50.832;12.882;2023-05-07T01:08:55;12.38;;;5.10;;
70715;SDS011;59053;50.832;12.882;2023-05-07T01:11:22;13.40;;;5.45;;
70715;SDS011;59053;50.832;12.882;2023-05-07T01:13:48;12.73;;;5.55;;
70715;SDS011;59053;50.832;12.882;2023-05-07T01:16:16;12.80;;;5.07;;
70715;SDS011;59053;50.832;12.882;2023-05-07T01:18:41;14.18;;;5.85;;
70715;SDS011;59053;50.832;12.882;2023-05-07T01:21:25;16.43;;;6.83;;
70715;SDS011;59053;50.832;12.882;2023-05-07T01:23:56;16.38;;;6.60;;
70715;SDS011;59053;50.832;12.882;2023-05-07T01:26:28;16.67;;;6.80;;
70715;SDS011;59053;50.832;12.882;2023-05-07T01:28:54;17.20;;;7.20;;
70715;SDS011;59053;50.832;12.882;2023-05-07T01:31:33;19.37;;;7.37;;
70715;SDS011;59053;50.832;12.882;2023-05-07T01:33:59;18.33;;;7.40;;
70715;SDS011;59053;50.832;12.882;2023-05-07T01:36:44;20.55;;;7.40;;
70715;SDS011;59053;50.832;12.882;2023-05-07T01:39:11;16.58;;;6.47;;
70715;SDS011;59053;50.832;12.882;2023-05-07T01:41:42;16.10;;;6.43;;
70715;SDS011;59053;50.832;12.882;2023-05-07T01:44:22;17.50;;;7.23;;
70715;SDS011;59053;50.832;12.882;2023-05-07T01:46:53;17.23;;;7.30;;
70715;SDS011;59053;50.832;12.882;2023-05-07T01:49:19;18.85;;;7.50;;
70715;SDS011;59053;50.832;12.882;2023-05-07T01:51:45;18.73;;;7.83;;
70715;SDS011;59053;50.832;12.882;2023-05-07T01:54:27;13.63;;;4.90;;
70715;SDS011;59053;50.832;12.882;2023-05-07T01:56:56;16.30;;;6.60;;
70715;SDS011;59053;50.832;12.882;2023-05-07T02:02:09;18.90;;;7.25;;
70715;SDS011;59053;50.832;12.882;2023-05-07T02:04:42;18.02;;;7.63;;
70715;SDS011;59053;50.832;12.882;2023-05-07T02:07:22;19.00;;;8.00;;
70715;SDS011;59053;50.832;12.882;2023-05-07T02:09:49;18.70;;;7.28;;
70715;SDS011;59053;50.832;12.882;2023-05-07T02:12:14;21.67;;;8.20;;
70715;SDS011;59053;50.832;12.882;2023-05-07T02:14:57;17.10;;;6.35;;
70715;SDS011;59053;50.832;12.882;2023-05-07T02:17:22;22.88;;;8.93;;
70715;SDS011;59053;50.832;12.882;2023-05-07T02:19:47;21.93;;;9.33;;
70715;SDS011;59053;50.832;12.882;2023-05-07T02:22:13;23.90;;;9.33;;
70715;SDS011;59053;50.832;12.882;2023-05-07T02:24:38;24.77;;;9.30;;
70715;SDS011;59053;50.832;12.882;2023-05-07T02:27:04;18.93;;;7.60;;
70715;SDS011;59053;50.832;12.882;2023-05-07T02:29:41;27.20;;;9.63;;
70715;SDS011;59053;50.832;12.882;2023-05-07T02:32:07;20.83;;;7.93;;
70715;SDS011;59053;50.832;12.882;2023-05-07T02:34:32;20.27;;;7.55;;
70715;SDS011;59053;50.832;12.882;2023-05-07T02:39:48;28.35;;;10.10;;
70715;SDS011;59053;50.832;12.882;2023-05-07T02:47:34;20.33;;;7.70;;
70715;SDS011;59053;50.832;12.882;2023-05-07T02:53:00;26.50;;;10.07;;
70715;SDS011;59053;50.832;12.882;2023-05-07T02:55:26;28.05;;;8.95;;
70715;SDS011;59053;50.832;12.882;2023-05-07T03:01:16;21.45;;;7.82;;
70715;SDS011;59053;50.832;12.882;2023-05-07T03:03:49;26.73;;;10.63;;
70715;SDS011;59053;50.832;12.882;2023-05-07T03:06:15;24.10;;;10.17;;
70715;SDS011;59053;50.832;12.882;2023-05-07T03:08:40;20.13;;;7.60;;
70715;SDS011;59053;50.832;12.882;2023-05-07T03:11:22;19.03;;;6.83;;
70715;SDS011;59053;50.832;12.882;2023-05-07T03:13:47;25.83;;;9.75;;
70715;SDS011;59053;50.832;12.882;2023-05-07T03:19:25;27.15;;;9.00;;
70715;SDS011;59053;50.832;12.882;2023-05-07T03:25:03;29.67;;;10.25;;
70715;SDS011;59053;50.832;12.882;2023-05-07T03:30:26;28.33;;;10.02;;
70715;SDS011;59053;50.832;12.882;2023-05-07T03:39:01;26.93;;;10.53;;
70715;SDS011;59053;50.832;12.882;2023-05-07T03:41:34;25.85;;;9.98;;
70715;SDS011;59053;50.832;12.882;2023-05-07T03:44:02;25.77;;;9.73;;
70715;SDS011;59053;50.832;12.882;2023-05-07T03:46:30;21.80;;;8.07;;
70715;SDS011;59053;50.832;12.882;2023-05-07T03:48:57;26.40;;;9.77;;
70715;SDS011;59053;50.832;12.882;2023-05-07T03:51:24;25.90;;;9.90;;
70715;SDS011;59053;50.832;12.882;2023-05-07T03:53:50;28.23;;;9.75;;
70715;SDS011;59053;50.832;12.882;2023-05-07T03:56:19;25.23;;;9.88;;
70715;SDS011;59053;50.832;12.882;2023-05-07T03:58:44;24.43;;;9.03;;
70715;SDS011;59053;50.832;12.882;2023-05-07T04:01:10;27.08;;;10.15;;
70715;SDS011;59053;50.832;12.882;2023-05-07T04:03:36;19.70;;;7.07;;
70715;SDS011;59053;50.832;12.882;2023-05-07T04:06:02;16.77;;;6.40;;
70715;SDS011;59053;50.832;12.882;2023-05-07T04:08:29;23.73;;;8.93;;
70715;SDS011;59053;50.832;12.882;2023-05-07T04:10:56;25.02;;;10.00;;
70715;SDS011;59053;50.832;12.882;2023-05-07T04:13:29;22.20;;;8.20;;
70715;SDS011;59053;50.832;12.882;2023-05-07T04:15:56;24.00;;;9.10;;
70715;SDS011;59053;50.832;12.882;2023-05-07T04:18:22;24.05;;;8.57;;
70715;SDS011;59053;50.832;12.882;2023-05-07T04:20:48;20.50;;;7.22;;
70715;SDS011;59053;50.832;12.882;2023-05-07T04:23:19;21.53;;;7.30;;
70715;SDS011;59053;50.832;12.882;2023-05-07T04:25:44;22.15;;;8.43;;
70715;SDS011;59053;50.832;12.882;2023-05-07T04:28:42;19.42;;;7.60;;
70715;SDS011;59053;50.832;12.882;2023-05-07T04:31:08;21.42;;;8.18;;
70715;SDS011;59053;50.832;12.882;2023-05-07T04:33:35;19.10;;;7.72;;
70715;SDS011;59053;50.832;12.882;2023-05-07T04:36:02;22.50;;;7.33;;
70715;SDS011;59053;50.832;12.882;2023-05-07T04:38:32;21.63;;;8.27;;
70715;SDS011;59053;50.832;12.882;2023-05-07T04:41:03;22.85;;;7.90;;
70715;SDS011;59053;50.832;12.882;2023-05-07T04:43:31;22.73;;;7.97;;
70715;SDS011;59053;50.832;12.882;2023-05-07T04:45:56;20.97;;;7.70;;
70715;SDS011;59053;50.832;12.882;2023-05-07T04:48:24;18.90;;;7.85;;
70715;SDS011;59053;50.832;12.882;2023-05-07T04:50:51;19.38;;;7.97;;
70715;SDS011;59053;50.832;12.882;2023-05-07T04:53:17;20.43;;;8.07;;
70715;SDS011;59053;50.832;12.882;2023-05-07T04:55:43;20.90;;;7.65;;
70715;SDS011;59053;50.832;12.882;2023-05-07T04:58:09;19.40;;;7.93;;
70715;SDS011;59053;50.832;12.882;2023-05-07T05:00:38;21.13;;;8.00;;
70715;SDS011;59053;50.832;12.882;2023-05-07T05:03:08;21.65;;;8.52;;
70715;SDS011;59053;50.832;12.882;2023-05-07T05:05:35;21.58;;;8.45;;
70715;SDS011;59053;50.832;12.882;2023-05-07T05:08:01;24.33;;;8.23;;
70715;SDS011;59053;50.832;12.882;2023-05-07T05:10:39;22.60;;;8.27;;
70715;SDS011;59053;50.832;12.882;2023-05-07T05:20:04;25.63;;;9.43;;
70715;SDS011;59053;50.832;12.882;2023-05-07T05:22:31;22.67;;;9.20;;
70715;SDS011;59053;50.832;12.882;2023-05-07T05:24:58;25.50;;;9.68;;
70715;SDS011;59053;50.832;12.882;2023-05-07T05:27:24;21.50;;;8.50;;
70715;SDS011;59053;50.832;12.882;2023-05-07T05:29:56;16.63;;;6.88;;
70715;SDS011;59053;50.832;12.882;2023-05-07T05:32:22;23.58;;;9.75;;
70715;SDS011;59053;50.832;12.882;2023-05-07T05:34:49;27.67;;;10.07;;
70715;SDS011;59053;50.832;12.882;2023-05-07T05:37:14;24.83;;;10.83;;
70715;SDS011;59053;50.832;12.882;2023-05-07T05:39:40;18.92;;;7.57;;
70715;SDS011;59053;50.832;12.882;2023-05-07T05:42:07;25.95;;;9.85;;
70715;SDS011;59053;50.832;12.882;2023-05-07T05:44:36;24.47;;;9.33;;
70715;SDS011;59053;50.832;12.882;2023-05-07T05:47:03;26.42;;;9.70;;
70715;SDS011;59053;50.832;12.882;2023-05-07T05:49:40;28.55;;;10.95;;
70715;SDS011;59053;50.832;12.882;2023-05-07T05:52:07;23.52;;;9.32;;
70715;SDS011;59053;50.832;12.882;2023-05-07T05:57:22;25.60;;;10.90;;
70715;SDS011;59053;50.832;12.882;2023-05-07T05:59:47;16.50;;;6.55;;
70715;SDS011;59053;50.832;12.882;2023-05-07T06:02:21;24.67;;;9.03;;
70715;SDS011;59053;50.832;12.882;2023-05-07T06:04:59;20.75;;;7.85;;
70715;SDS011;59053;50.832;12.882;2023-05-07T06:07:24;27.63;;;10.40;;
70715;SDS011;59053;50.832;12.882;2023-05-07T06:09:52;30.17;;;10.75;;
70715;SDS011;59053;50.832;12.882;2023-05-07T06:12:18;20.58;;;8.65;;
70715;SDS011;59053;50.832;12.882;2023-05-07T06:14:56;27.02;;;11.10;;
70715;SDS011;59053;50.832;12.882;2023-05-07T06:17:22;23.93;;;9.60;;
70715;SDS011;59053;50.832;12.882;2023-05-07T06:19:49;20.80;;;8.43;;
70715;SDS011;59053;50.832;12.882;2023-05-07T06:22:18;21.27;;;9.15;;
70715;SDS011;59053;50.832;12.882;2023-05-07T06:24:54;23.33;;;8.88;;
70715;SDS011;59053;50.832;12.882;2023-05-07T06:27:20;22.40;;;9.05;;
70715;SDS011;59053;50.832;12.882;2023-05-07T06:29:47;24.13;;;9.40;;
70715;SDS011;59053;50.832;12.882;2023-05-07T06:32:15;18.80;;;7.07;;
70715;SDS011;59053;50.832;12.882;2023-05-07T06:34:45;19.38;;;8.18;;
70715;SDS011;59053;50.832;12.882;2023-05-07T06:40:16;18.50;;;7.80;;
70715;SDS011;59053;50.832;12.882;2023-05-07T06:42:43;25.20;;;10.23;;
70715;SDS011;59053;50.832;12.882;2023-05-07T06:45:21;20.05;;;9.13;;
70715;SDS011;59053;50.832;12.882;2023-05-07T06:47:47;21.70;;;9.10;;
70715;SDS011;59053;50.832;12.882;2023-05-07T06:50:13;21.10;;;9.30;;
70715;SDS011;59053;50.832;12.882;2023-05-07T06:52:56;19.93;;;7.90;;
70715;SDS011;59053;50.832;12.882;2023-05-07T06:55:22;22.40;;;9.45;;
70715;SDS011;59053;50.832;12.882;2023-05-07T06:57:51;21.23;;;8.90;;
70715;SDS011;59053;50.832;12.882;2023-05-07T07:00:17;21.77;;;9.00;;
70715;SDS011;59053;50.832;12.882;2023-05-07T07:02:49;20.98;;;8.80;;
70715;SDS011;59053;50.832;12.882;2023-05-07T07:08:22;19.33;;;8.07;;
70715;SDS011;59053;50.832;12.882;2023-05-07T07:10:57;20.03;;;9.07;;
70715;SDS011;59053;50.832;12.882;2023-05-07T07:13:22;20.00;;;8.43;;
70715;SDS011;59053;50.832;12.882;2023-05-07T07:15:48;21.90;;;9.30;;
70715;SDS011;59053;50.832;12.882;2023-05-07T07:18:13;22.13;;;8.40;;
70715;SDS011;59053;50.832;12.882;2023-05-07T07:20:56;20.20;;;7.83;;
70715;SDS011;59053;50.832;12.882;2023-05-07T07:23:24;19.17;;;8.98;;
70715;SDS011;59053;50.832;12.882;2023-05-07T07:25:51;18.80;;;8.30;;
70715;SDS011;59053;50.832;12.882;2023-05-07T07:28:17;17.65;;;7.68;;
70715;SDS011;59053;50.832;12.882;2023-05-07T07:30:42;20.35;;;8.15;;
70715;SDS011;59053;50.832;12.882;2023-05-07T07:33:09;18.30;;;6.83;;
70715;SDS011;59053;50.832;12.882;2023-05-07T07:35:36;17.63;;;8.00;;
70715;SDS011;59053;50.832;12.882;2023-05-07T07:38:06;16.85;;;7.72;;
70715;SDS011;59053;50.832;12.882;2023-05-07T07:41:07;17.92;;;7.10;;
70715;SDS011;59053;50.832;12.882;2023-05-07T07:43:38;17.42;;;7.97;;
70715;SDS011;59053;50.832;12.882;2023-05-07T07:46:08;19.97;;;8.00;;
70715;SDS011;59053;50.832;12.882;2023-05-07T07:48:33;15.43;;;7.07;;
70715;SDS011;59053;50.832;12.882;2023-05-07T07:50:59;15.77;;;7.20;;
70715;SDS011;59053;50.832;12.882;2023-05-07T07:53:24;16.60;;;6.67;;
70715;SDS011;59053;50.832;12.882;2023-05-07T07:55:50;15.45;;;6.45;;
70715;SDS011;59053;50.832;12.882;2023-05-07T07:58:18;12.65;;;5.85;;
70715;SDS011;59053;50.832;12.882;2023-05-07T08:00:45;16.37;;;6.40;;
70715;SDS011;59053;50.832;12.882;2023-05-07T08:03:12;10.68;;;5.32;;
70715;SDS011;59053;50.832;12.882;2023-05-07T08:05:43;15.32;;;6.03;;
70715;SDS011;59053;50.832;12.882;2023-05-07T08:08:08;14.20;;;5.88;;
70715;SDS011;59053;50.832;12.882;2023-05-07T08:10:36;12.43;;;5.68;;
70715;SDS011;59053;50.832;12.882;2023-05-07T08:13:07;11.90;;;5.80;;
70715;SDS011;59053;50.832;12.882;2023-05-07T08:15:35;11.57;;;5.50;;
70715;SDS011;59053;50.832;12.882;2023-05-07T08:18:02;11.37;;;5.10;;
70715;SDS011;59053;50.832;12.882;2023-05-07T08:20:28;10.23;;;4.70;;
70715;SDS011;59053;50.832;12.882;2023-05-07T08:22:55;10.85;;;4.57;;
70715;SDS011;59053;50.832;12.882;2023-05-07T08:25:21;10.05;;;4.85;;
70715;SDS011;59053;50.832;12.882;2023-05-07T08:27:46;11.30;;;5.03;;
70715;SDS011;59053;50.832;12.882;2023-05-07T08:30:14;10.40;;;5.30;;
70715;SDS011;59053;50.832;12.882;2023-05-07T08:32:52;11.43;;;5.30;;
70715;SDS011;59053;50.832;12.882;2023-05-07T08:35:25;8.93;;;3.95;;
70715;SDS011;59053;50.832;12.882;2023-05-07T08:37:52;10.82;;;5.20;;
70715;SDS011;59053;50.832;12.882;2023-05-07T08:40:22;10.85;;;4.88;;
70715;SDS011;59053;50.832;12.882;2023-05-07T08:42:50;10.50;;;4.87;;
70715;SDS011;59053;50.832;12.882;2023-05-07T08:48:02;9.65;;;4.30;;
70715;SDS011;59053;50.832;12.882;2023-05-07T08:50:34;9.07;;;4.40;;
70715;SDS011;59053;50.832;12.882;2023-05-07T08:53:00;7.90;;;3.47;;
70715;SDS011;59053;50.832;12.882;2023-05-07T08:55:28;7.88;;;3.90;;
70715;SDS011;59053;50.832;12.882;2023-05-07T08:57:54;7.18;;;3.60;;
70715;SDS011;59053;50.832;12.882;2023-05-07T09:00:20;6.10;;;3.03;;
70715;SDS011;59053;50.832;12.882;2023-05-07T09:02:52;7.83;;;3.80;;
70715;SDS011;59053;50.832;12.882;2023-05-07T09:05:18;7.50;;;3.78;;
70715;SDS011;59053;50.832;12.882;2023-05-07T09:07:44;8.07;;;4.10;;
70715;SDS011;59053;50.832;12.882;2023-05-07T09:10:12;7.10;;;3.60;;
70715;SDS011;59053;50.832;12.882;2023-05-07T09:12:39;8.80;;;3.80;;
70715;SDS011;59053;50.832;12.882;2023-05-07T09:15:06;7.28;;;3.50;;
70715;SDS011;59053;50.832;12.882;2023-05-07T09:17:32;6.30;;;3.15;;
70715;SDS011;59053;50.832;12.882;2023-05-07T09:20:04;11.07;;;4.87;;
70715;SDS011;59053;50.832;12.882;2023-05-07T09:22:35;8.18;;;3.85;;
70715;SDS011;59053;50.832;12.882;2023-05-07T09:25:08;8.40;;;4.53;;
70715;SDS011;59053;50.832;12.882;2023-05-07T09:27:35;9.48;;;4.75;;
70715;SDS011;59053;50.832;12.882;2023-05-07T09:30:05;9.60;;;4.75;;
70715;SDS011;59053;50.832;12.882;2023-05-07T09:32:38;11.83;;;4.73;;
70715;SDS011;59053;50.832;12.882;2023-05-07T09:35:04;11.02;;;5.43;;
70715;SDS011;59053;50.832;12.882;2023-05-07T09:37:30;9.27;;;4.45;;
70715;SDS011;59053;50.832;12.882;2023-05-07T09:39:56;8.53;;;4.50;;
70715;SDS011;59053;50.832;12.882;2023-05-07T09:42:23;7.60;;;3.67;;
70715;SDS011;59053;50.832;12.882;2023-05-07T09:44:51;7.90;;;3.80;;
70715;SDS011;59053;50.832;12.882;2023-05-07T09:47:20;8.95;;;3.65;;
70715;SDS011;59053;50.832;12.882;2023-05-07T09:49:49;8.20;;;4.63;;
70715;SDS011;59053;50.832;12.882;2023-05-07T09:52:18;8.27;;;4.23;;
70715;SDS011;59053;50.832;12.882;2023-05-07T09:54:48;9.90;;;4.38;;
70715;SDS011;59053;50.832;12.882;2023-05-07T09:57:16;7.28;;;3.95;;
70715;SDS011;59053;50.832;12.882;2023-05-07T09:59:44;7.18;;;3.63;;
70715;SDS011;59053;50.832;12.882;2023-05-07T10:02:14;8.70;;;4.00;;
70715;SDS011;59053;50.832;12.882;2023-05-07T10:04:46;8.37;;;4.00;;
70715;SDS011;59053;50.832;12.882;2023-05-07T10:07:13;8.45;;;4.07;;
70715;SDS011;59053;50.832;12.882;2023-05-07T10:09:39;6.65;;;3.05;;
70715;SDS011;59053;50.832;12.882;2023-05-07T10:12:11;7.82;;;4.10;;
70715;SDS011;59053;50.832;12.882;2023-05-07T10:14:37;7.22;;;3.97;;
70715;SDS011;59053;50.832;12.882;2023-05-07T10:17:03;6.77;;;3.47;;
70715;SDS011;59053;50.832;12.882;2023-05-07T10:19:29;6.60;;;3.60;;
70715;SDS011;59053;50.832;12.882;2023-05-07T10:21:59;6.45;;;3.22;;
70715;SDS011;59053;50.832;12.882;2023-05-07T10:24:31;7.72;;;3.67;;
70715;SDS011;59053;50.832;12.882;2023-05-07T10:26:59;6.30;;;2.87;;
70715;SDS011;59053;50.832;12.882;2023-05-07T10:29:31;5.95;;;3.33;;
70715;SDS011;59053;50.832;12.882;2023-05-07T10:35:07;6.65;;;3.00;;
70715;SDS011;59053;50.832;12.882;2023-05-07T10:37:36;5.75;;;3.08;;
70715;SDS011;59053;50.832;12.882;2023-05-07T10:40:01;5.93;;;3.10;;
70715;SDS011;59053;50.832;12.882;2023-05-07T10:42:29;6.45;;;3.08;;
70715;SDS011;59053;50.832;12.882;2023-05-07T10:44:55;5.70;;;2.80;;
70715;SDS011;59053;50.832;12.882;2023-05-07T10:47:25;3.63;;;2.20;;
70715;SDS011;59053;50.832;12.882;2023-05-07T10:52:25;5.10;;;2.80;;
70715;SDS011;59053;50.832;12.882;2023-05-07T10:55:24;4.97;;;2.90;;
70715;SDS011;59053;50.832;12.882;2023-05-07T11:00:47;6.88;;;3.60;;
70715;SDS011;59053;50.832;12.882;2023-05-07T11:03:21;8.52;;;4.30;;
70715;SDS011;59053;50.832;12.882;2023-05-07T11:06:14;6.90;;;3.65;;
70715;SDS011;59053;50.832;12.882;2023-05-07T11:08:57;7.60;;;4.28;;
70715;SDS011;59053;50.832;12.882;2023-05-07T11:11:43;7.60;;;4.43;;
70715;SDS011;59053;50.832;12.882;2023-05-07T11:17:10;6.68;;;3.60;;
70715;SDS011;59053;50.832;12.882;2023-05-07T11:19:52;5.70;;;3.53;;
70715;SDS011;59053;50.832;12.882;2023-05-07T11:25:25;6.80;;;4.10;;
70715;SDS011;59053;50.832;12.882;2023-05-07T11:28:08;6.60;;;3.75;;
70715;SDS011;59053;50.832;12.882;2023-05-07T11:30:43;7.55;;;3.13;;
70715;SDS011;59053;50.832;12.882;2023-05-07T11:33:12;6.65;;;3.20;;
70715;SDS011;59053;50.832;12.882;2023-05-07T11:35:39;7.97;;;3.88;;
70715;SDS011;59053;50.832;12.882;2023-05-07T11:38:08;6.53;;;3.67;;
70715;SDS011;59053;50.832;12.882;2023-05-07T11:40:34;7.75;;;3.67;;
70715;SDS011;59053;50.832;12.882;2023-05-07T11:43:04;5.23;;;3.17;;
70715;SDS011;59053;50.832;12.882;2023-05-07T11:45:35;6.95;;;3.60;;
70715;SDS011;59053;50.832;12.882;2023-05-07T11:48:01;7.25;;;4.07;;
70715;SDS011;59053;50.832;12.882;2023-05-07T12:01:55;8.27;;;4.30;;
70715;SDS011;59053;50.832;12.882;2023-05-07T12:04:24;6.05;;;3.80;;
70715;SDS011;59053;50.832;12.882;2023-05-07T12:06:56;6.43;;;3.50;;
70715;SDS011;59053;50.832;12.882;2023-05-07T12:09:21;7.82;;;3.78;;
70715;SDS011;59053;50.832;12.882;2023-05-07T12:11:47;7.03;;;3.93;;
70715;SDS011;59053;50.832;12.882;2023-05-07T12:14:12;6.53;;;3.60;;
70715;SDS011;59053;50.832;12.882;2023-05-07T12:16:39;5.93;;;3.58;;
70715;SDS011;59053;50.832;12.882;2023-05-07T12:19:06;6.63;;;3.38;;
70715;SDS011;59053;50.832;12.882;2023-05-07T12:21:34;6.87;;;3.50;;
70715;SDS011;59053;50.832;12.882;2023-05-07T12:26:28;10.45;;;4.18;;
70715;SDS011;59053;50.832;12.882;2023-05-07T12:28:59;7.20;;;3.77;;
70715;SDS011;59053;50.832;12.882;2023-05-07T12:31:26;6.93;;;3.65;;
70715;SDS011;59053;50.832;12.882;2023-05-07T12:33:52;6.95;;;4.22;;
70715;SDS011;59053;50.832;12.882;2023-05-07T12:36:19;8.53;;;4.17;;
70715;SDS011;59053;50.832;12.882;2023-05-07T12:38:46;7.25;;;4.20;;
70715;SDS011;59053;50.832;12.882;2023-05-07T12:47:44;7.38;;;4.35;;
70715;SDS011;59053;50.832;12.882;2023-05-07T12:50:10;7.78;;;4.60;;
70715;SDS011;59053;50.832;12.882;2023-05-07T12:52:36;6.82;;;3.53;;
70715;SDS011;59053;50.832;12.882;2023-05-07T12:55:05;9.13;;;4.57;;
70715;SDS011;59053;50.832;12.882;2023-05-07T12:57:37;7.43;;;4.40;;
70715;SDS011;59053;50.832;12.882;2023-05-07T13:00:07;8.20;;;3.42;;
70715;SDS011;59053;50.832;12.882;2023-05-07T13:02:33;7.47;;;4.32;;
70715;SDS011;59053;50.832;12.882;2023-05-07T13:05:12;8.82;;;4.75;;
70715;SDS011;59053;50.832;12.882;2023-05-07T13:07:38;6.60;;;4.33;;
70715;SDS011;59053;50.832;12.882;2023-05-07T13:10:07;7.30;;;4.40;;
70715;SDS011;59053;50.832;12.882;2023-05-07T13:12:32;6.85;;;4.20;;
70715;SDS011;59053;50.832;12.882;2023-05-07T13:14:58;6.90;;;4.70;;
70715;SDS011;59053;50.832;12.882;2023-05-07T13:17:24;5.75;;;3.47;;
70715;SDS011;59053;50.832;12.882;2023-05-07T13:19:56;7.60;;;4.13;;
70715;SDS011;59053;50.832;12.882;2023-05-07T13:22:22;8.40;;;4.40;;
70715;SDS011;59053;50.832;12.882;2023-05-07T13:24:47;7.03;;;4.30;;
70715;SDS011;59053;50.832;12.882;2023-05-07T13:27:12;7.37;;;4.60;;
70715;SDS011;59053;50.832;12.882;2023-05-07T13:29:38;7.13;;;4.30;;
70715;SDS011;59053;50.832;12.882;2023-05-07T13:32:03;6.15;;;4.10;;
70715;SDS011;59053;50.832;12.882;2023-05-07T13:34:35;7.20;;;4.53;;
70715;SDS011;59053;50.832;12.882;2023-05-07T13:37:01;4.75;;;3.45;;
70715;SDS011;59053;50.832;12.882;2023-05-07T13:39:27;6.28;;;3.17;;
70715;SDS011;59053;50.832;12.882;2023-05-07T13:41:58;5.50;;;3.30;;
70715;SDS011;59053;50.832;12.882;2023-05-07T13:44:23;7.32;;;4.45;;
70715;SDS011;59053;50.832;12.882;2023-05-07T13:46:49;8.37;;;4.63;;
70715;SDS011;59053;50.832;12.882;2023-05-07T13:49:21;6.67;;;4.10;;
70715;SDS011;59053;50.832;12.882;2023-05-07T13:51:46;6.72;;;4.13;;
70715;SDS011;59053;50.832;12.882;2023-05-07T13:54:11;6.60;;;4.20;;
70715;SDS011;59053;50.832;12.882;2023-05-07T13:59:13;5.65;;;3.30;;
70715;SDS011;59053;50.832;12.882;2023-05-07T14:01:41;6.93;;;3.30;;
70715;SDS011;59053;50.832;12.882;2023-05-07T14:04:07;6.65;;;4.00;;
70715;SDS011;59053;50.832;12.882;2023-05-07T14:06:32;7.57;;;4.07;;
70715;SDS011;59053;50.832;12.882;2023-05-07T14:08:58;7.85;;;3.92;;
70715;SDS011;59053;50.832;12.882;2023-05-07T14:11:23;8.60;;;3.57;;
70715;SDS011;59053;50.832;12.882;2023-05-07T14:13:48;6.33;;;3.67;;
70715;SDS011;59053;50.832;12.882;2023-05-07T14:16:14;6.80;;;3.73;;
70715;SDS011;59053;50.832;12.882;2023-05-07T14:21:38;7.07;;;4.00;;
70715;SDS011;59053;50.832;12.882;2023-05-07T14:24:05;6.80;;;4.10;;
70715;SDS011;59053;50.832;12.882;2023-05-07T14:26:31;7.35;;;4.43;;
70715;SDS011;59053;50.832;12.882;2023-05-07T14:28:57;7.05;;;3.47;;
70715;SDS011;59053;50.832;12.882;2023-05-07T14:31:23;6.47;;;4.00;;
70715;SDS011;59053;50.832;12.882;2023-05-07T14:34:01;7.10;;;4.17;;
70715;SDS011;59053;50.832;12.882;2023-05-07T14:36:27;7.50;;;4.13;;
70715;SDS011;59053;50.832;12.882;2023-05-07T14:38:53;7.22;;;4.30;;
70715;SDS011;59053;50.832;12.882;2023-05-07T14:41:22;7.83;;;4.40;;
70715;SDS011;59053;50.832;12.882;2023-05-07T14:43:50;6.55;;;3.60;;
70715;SDS011;59053;50.832;12.882;2023-05-07T14:46:31;6.88;;;4.10;;
70715;SDS011;59053;50.832;12.882;2023-05-07T14:48:58;6.85;;;3.95;;
70715;SDS011;59053;50.832;12.882;2023-05-07T14:51:41;6.88;;;4.30;;
70715;SDS011;59053;50.832;12.882;2023-05-07T14:59:43;7.13;;;4.55;;
70715;SDS011;59053;50.832;12.882;2023-05-07T15:02:09;6.70;;;4.20;;
70715;SDS011;59053;50.832;12.882;2023-05-07T15:04:44;7.83;;;4.73;;
70715;SDS011;59053;50.832;12.882;2023-05-07T15:07:14;7.00;;;4.50;;
70715;SDS011;59053;50.832;12.882;2023-05-07T15:09:58;5.95;;;3.78;;
70715;SDS011;59053;50.832;12.882;2023-05-07T15:12:41;7.57;;;4.50;;
70715;SDS011;59053;50.832;12.882;2023-05-07T15:15:14;6.53;;;4.30;;
70715;SDS011;59053;50.832;12.882;2023-05-07T15:17:43;6.97;;;4.57;;
70715;SDS011;59053;50.832;12.882;2023-05-07T15:20:16;4.93;;;3.23;;
70715;SDS011;59053;50.832;12.882;2023-05-07T15:22:42;6.32;;;4.20;;
70715;SDS011;59053;50.832;12.882;2023-05-07T15:25:15;6.80;;;4.30;;
70715;SDS011;59053;50.832;12.882;2023-05-07T15:30:28;7.90;;;4.97;;
70715;SDS011;59053;50.832;12.882;2023-05-07T15:32:57;7.68;;;5.10;;
70715;SDS011;59053;50.832;12.882;2023-05-07T15:35:23;6.47;;;3.40;;
70715;SDS011;59053;50.832;12.882;2023-05-07T15:40:42;7.90;;;5.03;;
70715;SDS011;59053;50.832;12.882;2023-05-07T15:43:08;8.27;;;4.90;;
70715;SDS011;59053;50.832;12.882;2023-05-07T15:45:38;8.25;;;5.03;;
70715;SDS011;59053;50.832;12.882;2023-05-07T15:50:51;5.60;;;3.40;;
70715;SDS011;59053;50.832;12.882;2023-05-07T15:53:24;7.28;;;4.63;;
70715;SDS011;59053;50.832;12.882;2023-05-07T15:58:48;7.88;;;5.05;;
70715;SDS011;59053;50.832;12.882;2023-05-07T16:01:18;7.03;;;3.97;;
70715;SDS011;59053;50.832;12.882;2023-05-07T16:03:52;7.43;;;4.63;;
70715;SDS011;59053;50.832;12.882;2023-05-07T16:09:38;7.53;;;4.80;;
70715;SDS011;59053;50.832;12.882;2023-05-07T16:14:54;7.30;;;4.78;;
70715;SDS011;59053;50.832;12.882;2023-05-07T16:17:19;8.05;;;5.18;;
70715;SDS011;59053;50.832;12.882;2023-05-07T16:19:45;8.20;;;4.83;;
70715;SDS011;59053;50.832;12.882;2023-05-07T16:22:27;7.40;;;5.17;;
70715;SDS011;59053;50.832;12.882;2023-05-07T16:24:55;8.30;;;5.00;;
70715;SDS011;59053;50.832;12.882;2023-05-07T16:30:13;7.03;;;4.65;;
70715;SDS011;59053;50.832;12.882;2023-05-07T16:32:41;8.18;;;4.88;;
70715;SDS011;59053;50.832;12.882;2023-05-07T16:35:06;8.57;;;5.55;;
70715;SDS011;59053;50.832;12.882;2023-05-07T16:37:50;8.23;;;5.07;;
70715;SDS011;59053;50.832;12.882;2023-05-07T16:40:17;8.97;;;5.37;;